createdAt,value
2019-06-10T00:00:31.822Z,11.86
2019-06-10T00:05:36.531Z,11.44
2019-06-10T00:10:42.141Z,11.44
2019-06-10T00:15:47.261Z,11.22
2019-06-10T00:20:52.232Z,11.26
2019-06-10T00:25:57.919Z,11.47
2019-06-10T00:31:04.226Z,11.46
2019-06-10T00:36:13.230Z,11.44
2019-06-10T00:41:15.911Z,11.55
2019-06-10T00:46:21.305Z,11.51
2019-06-10T00:51:26.134Z,11.42
2019-06-10T00:56:31.405Z,11.61
2019-06-10T01:01:36.165Z,11.73
2019-06-10T01:06:42.369Z,11.50
2019-06-10T01:11:47.253Z,11.57
2019-06-10T01:16:52.082Z,11.81
2019-06-10T01:21:56.861Z,12.07
2019-06-10T01:27:01.600Z,12.06
2019-06-10T01:32:07.145Z,11.87
2019-06-10T01:37:14.315Z,12.12
2019-06-10T01:42:18.415Z,12.14
2019-06-10T01:47:23.134Z,12.14
2019-06-10T01:52:27.836Z,12.00
2019-06-10T01:57:32.625Z,12.03
2019-06-10T02:02:37.362Z,12.09
2019-06-10T02:07:42.254Z,12.09
2019-06-10T02:12:47.264Z,12.35
2019-06-10T02:17:52.099Z,12.57
2019-06-10T02:22:56.854Z,12.53
2019-06-10T02:28:01.658Z,12.50
2019-06-10T02:33:06.346Z,12.24
2019-06-10T02:38:16.818Z,11.95
2019-06-10T02:43:23.914Z,12.02
2019-06-10T02:48:30.392Z,12.26
2019-06-10T02:53:36.167Z,12.06
2019-06-10T02:58:44.511Z,11.82
2019-06-10T03:03:49.748Z,12.01
2019-06-10T03:08:55.027Z,12.18
2019-06-10T03:13:59.739Z,12.19
2019-06-10T03:19:04.910Z,11.95
2019-06-10T03:24:09.983Z,11.78
2019-06-10T03:29:14.705Z,11.72
2019-06-10T03:34:21.891Z,11.77
2019-06-10T03:39:28.426Z,11.80
2019-06-10T03:44:33.079Z,11.93
2019-06-10T03:49:49.933Z,12.11
2019-06-10T03:54:44.495Z,12.02
2019-06-10T03:59:49.401Z,12.17
2019-06-10T04:04:54.564Z,12.24
2019-06-10T04:09:59.345Z,12.23
2019-06-10T04:15:04.179Z,11.94
2019-06-10T04:20:13.231Z,12.12
2019-06-10T04:25:17.785Z,12.21
2019-06-10T04:30:24.957Z,12.06
2019-06-10T04:35:29.175Z,11.67
2019-06-10T04:40:34.254Z,11.75
2019-06-10T04:45:38.861Z,11.82
2019-06-10T04:50:46.351Z,11.98
2019-06-10T04:55:52.253Z,12.09
2019-06-10T05:00:56.844Z,12.03
2019-06-10T05:06:03.338Z,12.26
2019-06-10T05:11:08.410Z,12.40
2019-06-10T05:16:13.234Z,12.50
2019-06-10T05:21:17.980Z,12.48
2019-06-10T05:26:25.526Z,12.41
2019-06-10T05:31:31.009Z,12.30
2019-06-10T05:36:35.691Z,12.03
2019-06-10T05:41:43.079Z,11.93
2019-06-10T05:46:47.564Z,12.00
2019-06-10T05:51:52.758Z,11.92
2019-06-10T05:56:57.714Z,11.98
2019-06-10T06:02:02.485Z,12.14
2019-06-10T06:07:07.469Z,12.29
2019-06-10T06:12:14.312Z,12.51
2019-06-10T06:17:18.702Z,12.82
2019-06-10T06:22:23.365Z,13.21
2019-06-10T06:27:28.717Z,13.55
2019-06-10T06:32:36.301Z,13.78
2019-06-10T06:37:42.735Z,13.69
2019-06-10T06:42:46.763Z,13.82
2019-06-10T06:47:52.768Z,14.15
2019-06-10T06:53:19.813Z,14.34
2019-06-10T06:58:04.420Z,14.12
2019-06-10T07:03:09.343Z,14.07
2019-06-10T07:08:14.030Z,14.43
2019-06-10T07:13:18.880Z,14.84
2019-06-10T07:18:23.822Z,15.20
2019-06-10T07:23:28.640Z,15.56
2019-06-10T07:28:35.773Z,15.18
2019-06-10T07:33:43.040Z,14.83
2019-06-10T07:38:49.028Z,14.79
2019-06-10T07:43:53.152Z,14.83
2019-06-10T07:48:58.104Z,15.33
2019-06-10T07:54:03.274Z,15.40
2019-06-10T07:59:08.033Z,15.56
2019-06-10T08:04:12.899Z,15.39
2019-06-10T08:09:17.737Z,15.43
2019-06-10T08:14:22.578Z,15.40
2019-06-10T08:19:34.763Z,15.25
2019-06-10T08:24:35.240Z,15.38
2019-06-10T08:29:41.649Z,15.69
2019-06-10T08:34:48.119Z,15.85
2019-06-10T08:39:53.265Z,16.04
2019-06-10T08:45:00.050Z,16.19
2019-06-10T08:50:05.672Z,16.53
2019-06-10T08:55:12.606Z,17.18
2019-06-10T09:00:18.763Z,17.61
2019-06-10T09:05:23.935Z,18.29
2019-06-10T09:10:28.708Z,18.72
2019-06-10T09:15:33.678Z,19.20
2019-06-10T09:20:39.379Z,19.15
2019-06-10T09:25:48.982Z,19.76
2019-06-10T09:30:58.332Z,21.45
2019-06-10T09:35:58.947Z,21.72
2019-06-10T09:41:06.104Z,21.01
2019-06-10T09:46:12.631Z,21.02
2019-06-10T09:51:17.070Z,20.68
2019-06-10T09:56:23.420Z,20.18
2019-06-10T10:01:28.309Z,20.25
2019-06-10T10:06:33.163Z,20.01
2019-06-10T10:11:38.472Z,19.42
2019-06-10T10:16:48.371Z,19.13
2019-06-10T10:21:56.039Z,19.65
2019-06-10T10:26:57.982Z,20.66
2019-06-10T10:32:03.042Z,21.31
2019-06-10T10:37:07.909Z,21.51
2019-06-10T10:42:12.718Z,20.46
2019-06-10T10:47:17.595Z,20.98
2019-06-10T10:52:22.476Z,22.11
2019-06-10T10:57:27.540Z,22.24
2019-06-10T11:02:32.411Z,21.83
2019-06-10T11:07:37.209Z,20.29
2019-06-10T11:12:44.979Z,18.67
2019-06-10T11:17:49.741Z,18.68
2019-06-10T11:22:54.710Z,20.25
2019-06-10T11:27:59.941Z,21.38
2019-06-10T11:33:05.071Z,21.66
2019-06-10T11:38:12.673Z,22.55
2019-06-10T11:43:16.799Z,23.03
2019-06-10T11:48:23.677Z,23.27
2019-06-10T11:53:28.878Z,23.36
2019-06-10T11:58:33.826Z,23.49
2019-06-10T12:03:38.766Z,23.15
2019-06-10T12:08:43.921Z,21.88
2019-06-10T12:13:49.148Z,20.92
2019-06-10T12:18:57.378Z,19.36
2019-06-10T12:24:03.174Z,19.21
2019-06-10T12:29:08.164Z,19.63
2019-06-10T12:34:12.892Z,20.30
2019-06-10T12:39:17.729Z,20.15
2019-06-10T12:44:22.835Z,20.27
2019-06-10T12:49:28.250Z,20.28
2019-06-10T12:54:33.059Z,20.36
2019-06-10T12:59:37.795Z,20.57
2019-06-10T13:04:44.071Z,21.11
2019-06-10T13:09:48.824Z,21.95
2019-06-10T13:14:53.618Z,22.82
2019-06-10T13:19:59.214Z,22.91
2019-06-10T13:25:04.797Z,22.68
2019-06-10T13:30:10.182Z,22.43
2019-06-10T13:35:14.996Z,22.56
2019-06-10T13:40:22.700Z,22.48
2019-06-10T13:45:27.333Z,23.02
2019-06-10T13:50:32.854Z,23.11
2019-06-10T13:55:37.690Z,22.80
2019-06-10T14:00:46.563Z,23.05
2019-06-10T14:05:49.220Z,22.83
2019-06-10T14:10:55.107Z,22.51
2019-06-10T14:16:01.322Z,22.94
2019-06-10T14:21:09.645Z,22.94
2019-06-10T14:26:16.984Z,22.61
2019-06-10T14:31:38.553Z,22.54
2019-06-10T14:36:26.430Z,20.85
2019-06-10T14:41:32.706Z,20.70
2019-06-10T14:46:37.762Z,21.13
2019-06-10T14:51:43.240Z,20.87
2019-06-10T14:56:53.633Z,20.04
2019-06-10T15:01:54.619Z,19.21
2019-06-10T15:06:59.422Z,17.81
2019-06-10T15:12:05.006Z,17.47
2019-06-10T15:17:10.606Z,17.38
2019-06-10T15:22:16.968Z,17.69
2019-06-10T15:27:29.673Z,17.98
2019-06-10T15:32:34.581Z,17.73
2019-06-10T15:37:35.251Z,17.67
2019-06-10T15:42:42.554Z,17.73
2019-06-10T15:47:46.616Z,17.65
2019-06-10T15:52:52.437Z,17.49
2019-06-10T15:57:57.328Z,17.09
2019-06-10T16:03:02.563Z,16.79
2019-06-10T16:08:07.326Z,17.01
2019-06-10T16:13:12.517Z,16.95
2019-06-10T16:18:18.840Z,16.77
2019-06-10T16:23:26.568Z,16.88
2019-06-10T16:28:32.917Z,16.59
2019-06-10T16:33:37.405Z,16.26
2019-06-10T16:38:42.568Z,16.21
2019-06-10T16:43:47.482Z,16.17
2019-06-10T16:48:52.890Z,16.12
2019-06-10T16:53:57.863Z,16.01
2019-06-10T16:59:03.032Z,16.01
2019-06-10T17:04:07.864Z,15.98
2019-06-10T17:09:13.555Z,16.01
2019-06-10T17:14:18.394Z,15.91
2019-06-10T17:19:26.367Z,15.78
2019-06-10T17:24:31.508Z,15.68
2019-06-10T17:29:36.516Z,15.62
2019-06-10T17:34:42.357Z,15.42
2019-06-10T17:39:47.211Z,15.27
2019-06-10T17:44:52.982Z,15.33
2019-06-10T17:49:58.531Z,15.28
2019-06-10T17:55:03.871Z,15.13
2019-06-10T18:00:12.319Z,14.98
2019-06-10T18:05:17.141Z,14.85
2019-06-10T18:10:22.792Z,14.70
2019-06-10T18:15:30.175Z,14.57
2019-06-10T18:20:37.037Z,14.66
2019-06-10T18:25:43.316Z,14.49
2019-06-10T18:30:48.842Z,14.39
2019-06-10T18:35:53.763Z,14.41
2019-06-10T18:40:58.643Z,14.46
2019-06-10T18:46:03.684Z,14.32
2019-06-10T18:51:08.831Z,14.30
2019-06-10T18:56:13.732Z,14.19
2019-06-10T19:01:19.477Z,14.07
2019-06-10T19:06:24.697Z,13.96
2019-06-10T19:11:31.027Z,14.16
2019-06-10T19:16:37.350Z,14.43
2019-06-10T19:21:44.077Z,14.44
2019-06-10T19:26:49.163Z,14.30
2019-06-10T19:31:54.071Z,14.27
2019-06-10T19:36:59.170Z,14.21
2019-06-10T19:42:04.922Z,14.18
2019-06-10T19:47:09.947Z,13.94
2019-06-10T19:52:14.751Z,13.94
2019-06-10T19:57:21.875Z,13.95
2019-06-10T20:02:26.434Z,13.76
2019-06-10T20:07:31.290Z,13.48
2019-06-10T20:12:36.300Z,13.40
2019-06-10T20:17:41.675Z,13.37
2019-06-10T20:22:47.051Z,13.27
2019-06-10T20:27:53.130Z,13.31
2019-06-10T20:32:57.961Z,13.25
2019-06-10T20:38:05.025Z,13.10
2019-06-10T20:43:09.605Z,13.05
2019-06-10T20:48:14.467Z,12.95
2019-06-10T20:53:19.476Z,13.00
2019-06-10T20:58:24.806Z,12.83
2019-06-10T21:03:32.193Z,12.76
2019-06-10T21:08:37.890Z,12.79
2019-06-10T21:13:47.272Z,12.80
2019-06-10T21:18:51.414Z,12.84
2019-06-10T21:23:56.978Z,12.90
2019-06-10T21:29:03.802Z,12.93
2019-06-10T21:34:08.491Z,13.11
2019-06-10T21:39:13.281Z,13.16
2019-06-10T21:44:19.088Z,13.18
2019-06-10T21:49:24.049Z,13.06
2019-06-10T21:54:28.946Z,13.00
2019-06-10T21:59:33.701Z,13.02
2019-06-10T22:04:38.472Z,12.87
2019-06-10T22:09:44.120Z,12.78
2019-06-10T22:14:50.355Z,12.68
2019-06-10T22:19:56.502Z,12.75
2019-06-10T22:25:02.962Z,12.56
2019-06-10T22:30:11.486Z,12.36
2019-06-10T22:35:14.477Z,12.33
2019-06-10T22:40:19.569Z,12.32
2019-06-10T22:45:24.726Z,12.23
2019-06-10T22:50:29.474Z,12.18
2019-06-10T22:55:34.361Z,12.19
2019-06-10T23:00:39.303Z,12.17
2019-06-10T23:05:44.276Z,12.28
2019-06-10T23:10:48.962Z,12.52
2019-06-10T23:15:56.681Z,12.66
2019-06-10T23:21:01.590Z,12.75
2019-06-10T23:26:07.060Z,12.89
2019-06-10T23:31:12.751Z,13.01
2019-06-10T23:36:17.607Z,12.99
2019-06-10T23:41:22.558Z,13.01
2019-06-10T23:46:27.313Z,13.03
2019-06-10T23:51:33.241Z,13.12
2019-06-10T23:56:38.153Z,13.19
